createdAt,value
2024-05-09T04:54:59.042Z,13.69
2024-05-09T04:57:26.212Z,14.23
2024-05-09T04:59:56.024Z,14.31
2024-05-09T05:02:23.136Z,13.89
2024-05-09T05:04:50.293Z,12.76
2024-05-09T05:07:17.323Z,13.42
2024-05-09T05:09:44.308Z,13.90
2024-05-09T05:12:12.600Z,14.02
2024-05-09T05:14:40.754Z,13.83
2024-05-09T05:17:07.899Z,14.41
2024-05-09T05:19:35.158Z,13.86
2024-05-09T05:22:02.256Z,13.83
2024-05-09T05:24:29.313Z,13.93
2024-05-09T05:26:57.344Z,13.59
2024-05-09T05:29:24.429Z,13.61
2024-05-09T05:31:51.578Z,13.85
2024-05-09T05:34:18.673Z,13.52
2024-05-09T05:36:45.651Z,13.85
2024-05-09T05:39:12.628Z,13.97
2024-05-09T05:41:39.627Z,13.84
2024-05-09T05:44:06.779Z,14.22
2024-05-09T05:46:33.781Z,13.67
2024-05-09T05:49:00.838Z,13.61
2024-05-09T05:51:27.911Z,13.37
2024-05-09T05:53:54.873Z,13.87
2024-05-09T05:56:22.046Z,13.90
2024-05-09T05:58:49.091Z,13.68
2024-05-09T06:01:17.100Z,13.71
2024-05-09T06:03:44.314Z,13.47
2024-05-09T06:06:11.585Z,13.11
2024-05-09T06:08:38.636Z,13.84
2024-05-09T06:11:08.251Z,13.22
2024-05-09T06:13:35.249Z,13.25
2024-05-09T06:16:02.217Z,13.67
2024-05-09T06:18:28.978Z,13.27
2024-05-09T06:20:55.842Z,13.85
2024-05-09T06:23:22.506Z,13.38
2024-05-09T06:25:49.291Z,13.58
2024-05-09T06:28:15.902Z,13.26
2024-05-09T06:30:43.358Z,13.08
2024-05-09T06:33:11.817Z,13.08
2024-05-09T06:35:40.514Z,13.04
2024-05-09T06:38:07.392Z,13.50
2024-05-09T06:40:37.870Z,13.42
2024-05-09T06:43:06.370Z,13.26
2024-05-09T06:45:32.955Z,13.83
2024-05-09T06:47:59.885Z,13.40
2024-05-09T06:50:28.736Z,12.97
2024-05-09T06:53:02.439Z,13.40
2024-05-09T06:55:29.177Z,13.18
2024-05-09T06:57:55.794Z,12.67
2024-05-09T07:00:27.655Z,12.71
2024-05-09T07:03:05.367Z,12.20
2024-05-09T07:05:32.631Z,12.22
2024-05-09T07:07:59.283Z,12.35
2024-05-09T07:10:32.773Z,12.22
2024-05-09T07:13:01.818Z,12.00
2024-05-09T07:15:28.443Z,11.99
2024-05-09T07:17:55.713Z,11.98
2024-05-09T07:20:31.871Z,11.98
2024-05-09T07:23:01.772Z,12.10
2024-05-09T07:25:28.953Z,11.99
2024-05-09T07:27:56.001Z,11.40
2024-05-09T07:30:27.841Z,11.23
2024-05-09T07:33:00.633Z,11.23
2024-05-09T07:35:29.686Z,11.10
2024-05-09T07:37:56.980Z,11.47
2024-05-09T07:40:32.910Z,11.66
2024-05-09T07:43:03.363Z,11.47
2024-05-09T07:52:23.391Z,10.67
2024-05-09T07:53:38.539Z,10.48
2024-05-09T07:56:07.208Z,10.27
2024-05-09T07:58:34.505Z,10.19
2024-05-09T08:01:01.544Z,9.68
2024-05-09T08:03:28.850Z,10.18
2024-05-09T08:05:55.912Z,10.00
2024-05-09T08:08:22.873Z,10.00
2024-05-09T08:10:49.888Z,10.02
2024-05-09T08:13:16.969Z,10.26
2024-05-09T08:15:44.034Z,9.94
2024-05-09T08:18:11.325Z,10.07
2024-05-09T08:20:38.468Z,9.87
2024-05-09T08:23:05.460Z,9.74
2024-05-09T08:25:32.465Z,9.67
2024-05-09T08:27:59.522Z,9.44
2024-05-09T08:30:33.402Z,8.76
2024-05-09T08:33:04.085Z,8.83
2024-05-09T08:35:31.201Z,8.58
2024-05-09T08:37:58.284Z,8.20
2024-05-09T08:40:32.897Z,8.39
2024-05-09T08:43:02.607Z,8.40
2024-05-09T08:45:29.802Z,9.36
2024-05-09T08:47:57.003Z,9.17
2024-05-09T08:50:31.993Z,9.74
2024-05-09T08:53:05.198Z,8.03
2024-05-09T08:55:32.268Z,8.75
2024-05-09T08:57:59.338Z,8.05
2024-05-09T09:00:34.207Z,7.67
2024-05-09T09:03:04.286Z,7.48
2024-05-09T09:05:32.003Z,7.30
2024-05-09T09:07:59.202Z,7.55
2024-05-09T09:10:31.898Z,7.09
2024-05-09T09:13:00.042Z,7.58
2024-05-09T09:15:27.119Z,8.20
2024-05-09T09:17:54.238Z,8.39
2024-05-09T09:20:26.435Z,8.31
2024-05-09T09:23:00.597Z,8.66
2024-05-09T09:25:27.195Z,8.95
2024-05-09T09:27:53.814Z,10.62
2024-05-09T09:30:31.783Z,9.67
2024-05-09T09:33:03.607Z,10.57
2024-05-09T09:35:30.290Z,9.47
2024-05-09T09:37:56.888Z,9.04
2024-05-09T09:40:31.004Z,8.17
2024-05-09T09:42:59.180Z,7.85
2024-05-09T09:45:25.753Z,9.41
2024-05-09T09:47:52.459Z,9.89
2024-05-09T09:50:27.066Z,9.60
2024-05-09T09:52:58.292Z,9.43
2024-05-09T09:55:25.029Z,9.04
2024-05-09T09:57:51.792Z,8.94
2024-05-09T10:00:24.472Z,9.15
2024-05-09T10:02:57.091Z,8.98
2024-05-09T10:05:24.053Z,10.10
2024-05-09T10:07:50.855Z,9.02
2024-05-09T10:10:23.090Z,8.47
2024-05-09T10:12:56.585Z,8.53
2024-05-09T10:15:23.254Z,6.76
2024-05-09T10:17:49.952Z,7.28
2024-05-09T10:20:21.867Z,6.91
2024-05-09T10:22:51.926Z,7.83
2024-05-09T10:25:18.943Z,9.08
2024-05-09T10:27:45.941Z,9.78
2024-05-09T10:30:17.896Z,9.37
2024-05-09T10:32:52.566Z,9.28
2024-05-09T10:35:19.675Z,7.81
2024-05-09T10:37:46.656Z,6.46
2024-05-09T10:40:19.920Z,6.29
2024-05-09T10:42:50.510Z,5.92
2024-05-09T10:45:17.494Z,6.18
2024-05-09T10:47:44.564Z,5.92
2024-05-09T10:50:18.563Z,5.84
2024-05-09T10:52:52.444Z,5.50
2024-05-09T10:55:19.561Z,5.72
2024-05-09T10:57:46.749Z,6.67
2024-05-09T11:00:23.171Z,5.62
2024-05-09T11:02:57.057Z,6.01
2024-05-09T11:05:24.134Z,8.03
2024-05-09T11:07:51.174Z,9.12
2024-05-09T11:10:25.051Z,8.94
2024-05-09T11:12:58.479Z,7.51
2024-05-09T11:15:25.455Z,6.50
2024-05-09T11:17:52.560Z,5.94
2024-05-09T11:20:26.692Z,4.87
2024-05-09T11:22:56.642Z,4.68
2024-05-09T11:25:23.621Z,5.01
2024-05-09T11:27:50.624Z,4.80
2024-05-09T11:30:24.258Z,4.56
2024-05-09T11:32:57.058Z,4.44
2024-05-09T11:35:24.092Z,4.49
2024-05-09T11:37:51.044Z,4.22
2024-05-09T11:40:25.218Z,4.56
2024-05-09T11:42:55.487Z,4.90
2024-05-09T11:45:22.491Z,4.52
2024-05-09T11:47:49.701Z,4.39
2024-05-09T11:50:26.710Z,4.54
2024-05-09T11:52:57.132Z,4.25
2024-05-09T11:55:27.640Z,3.88
2024-05-09T11:57:55.703Z,4.25
2024-05-09T12:00:32.988Z,4.15
2024-05-09T12:03:03.530Z,4.37
2024-05-09T12:05:30.591Z,4.98
2024-05-09T12:07:57.653Z,5.67
2024-05-09T12:10:32.552Z,4.48
2024-05-09T12:13:02.362Z,4.07
2024-05-09T12:15:29.663Z,3.78
2024-05-09T12:17:59.068Z,3.84
2024-05-09T12:20:35.672Z,4.03
2024-05-09T12:23:05.638Z,3.90
2024-05-09T12:25:32.650Z,3.46
2024-05-09T12:27:59.833Z,3.71
2024-05-09T12:30:35.476Z,3.70
2024-05-09T12:33:05.964Z,3.67
2024-05-09T12:35:33.255Z,3.56
2024-05-09T12:38:00.322Z,3.49
2024-05-09T12:40:35.449Z,3.56
2024-05-09T12:43:05.260Z,3.55
2024-05-09T12:45:32.563Z,3.28
2024-05-09T12:47:59.736Z,3.09
2024-05-09T12:50:32.436Z,3.14
2024-05-09T12:53:01.679Z,3.21
2024-05-09T12:55:33.846Z,3.28
2024-05-09T12:58:07.960Z,3.28
2024-05-09T13:00:35.280Z,3.41
2024-05-09T13:03:02.405Z,3.13
2024-05-09T13:05:29.963Z,3.31
2024-05-09T13:07:57.390Z,3.36
2024-05-09T13:10:31.269Z,3.16
2024-05-09T13:13:00.571Z,3.39
2024-05-09T13:15:28.186Z,3.24
2024-05-09T13:17:58.086Z,3.31
2024-05-09T13:20:32.796Z,3.28
2024-05-09T13:23:02.206Z,3.31
2024-05-09T13:25:29.321Z,3.26
2024-05-09T13:27:56.435Z,3.17
2024-05-09T13:30:29.817Z,3.17
2024-05-09T13:33:05.910Z,3.26
2024-05-09T13:35:33.031Z,3.11
2024-05-09T13:37:59.614Z,3.21
2024-05-09T13:40:33.472Z,3.28
2024-05-09T13:43:02.518Z,3.51
2024-05-09T13:45:29.343Z,3.30
2024-05-09T13:47:56.143Z,3.51
2024-05-09T13:50:31.158Z,3.43
2024-05-09T13:53:01.786Z,3.24
2024-05-09T13:55:28.549Z,3.38
2024-05-09T13:57:55.182Z,3.72
2024-05-09T14:00:37.232Z,3.44
2024-05-09T14:03:08.483Z,3.52
2024-05-09T14:05:35.317Z,3.50
2024-05-09T14:08:02.047Z,3.35
2024-05-09T14:10:31.133Z,3.20
2024-05-09T14:12:58.795Z,3.05
2024-05-09T14:15:25.427Z,3.11
2024-05-09T14:17:52.077Z,3.03
2024-05-09T14:20:28.325Z,3.07
2024-05-09T14:22:58.070Z,3.27
2024-05-09T14:25:24.786Z,3.30
2024-05-09T14:27:51.470Z,3.43
2024-05-09T14:30:25.896Z,3.37
2024-05-09T14:33:00.431Z,3.29
2024-05-09T14:35:27.460Z,3.40
2024-05-09T14:37:54.183Z,3.20
2024-05-09T14:40:34.924Z,3.37
2024-05-09T14:43:06.634Z,3.56
2024-05-09T14:45:33.303Z,3.52
2024-05-09T14:48:00.065Z,3.13
2024-05-09T14:50:34.722Z,3.34
2024-05-09T14:53:04.678Z,3.57
2024-05-09T14:55:31.335Z,3.51
2024-05-09T14:57:58.086Z,3.35
2024-05-09T15:00:29.026Z,3.54
2024-05-09T15:02:59.972Z,3.12
2024-05-09T15:05:26.641Z,3.21
2024-05-09T15:07:53.264Z,3.30
2024-05-09T15:10:27.029Z,3.38
2024-05-09T15:13:00.580Z,3.19
2024-05-09T15:15:27.239Z,3.08
2024-05-09T15:17:53.903Z,3.42
2024-05-09T15:20:31.067Z,3.41
2024-05-09T15:23:01.960Z,3.30
2024-05-09T15:25:28.720Z,3.14
2024-05-09T15:27:55.520Z,3.37
2024-05-09T15:30:30.044Z,3.39
2024-05-09T15:32:59.252Z,3.65
2024-05-09T15:35:25.871Z,3.74
2024-05-09T15:37:52.872Z,4.62
2024-05-09T15:40:26.827Z,3.97
2024-05-09T15:43:02.549Z,3.82
2024-05-09T15:45:29.510Z,4.28
2024-05-09T15:50:32.323Z,4.71
2024-05-09T15:53:04.223Z,4.03
2024-05-09T15:55:30.789Z,4.45
2024-05-09T15:57:57.584Z,4.37
2024-05-09T16:00:29.386Z,4.31
2024-05-09T16:03:03.477Z,4.07
2024-05-09T16:05:30.250Z,4.06
2024-05-09T16:07:56.891Z,4.11
2024-05-09T16:10:30.053Z,3.85
2024-05-09T16:12:59.431Z,3.85
2024-05-09T16:15:26.098Z,4.02
2024-05-09T16:17:52.732Z,3.93
2024-05-09T16:20:29.918Z,3.47
2024-05-09T16:23:04.945Z,3.64
2024-05-09T16:25:31.567Z,3.66
2024-05-09T16:27:58.206Z,3.50
2024-05-09T16:30:31.730Z,3.66
2024-05-09T16:33:01.909Z,3.75
2024-05-09T16:35:28.731Z,3.58
2024-05-09T16:37:55.712Z,3.60
2024-05-09T16:40:30.261Z,3.53
2024-05-09T16:43:04.703Z,3.53
2024-05-09T16:45:32.058Z,3.51
2024-05-09T16:47:59.352Z,3.70
2024-05-09T16:50:32.022Z,3.97
2024-05-09T16:53:02.506Z,3.62
2024-05-09T16:55:29.334Z,3.77
2024-05-09T16:57:56.282Z,3.92
2024-05-09T17:00:34.841Z,4.01
2024-05-09T17:03:08.977Z,3.69
2024-05-09T17:05:37.803Z,3.78
2024-05-09T17:08:05.930Z,3.78
2024-05-09T17:10:34.826Z,3.85
2024-05-09T17:13:04.562Z,3.86
2024-05-09T17:15:39.763Z,3.11
2024-05-09T17:18:08.013Z,3.27
2024-05-09T17:20:37.482Z,3.80
2024-05-09T17:23:05.779Z,4.18
2024-05-09T17:25:39.258Z,3.90
2024-05-09T17:28:07.170Z,3.78
2024-05-09T17:30:49.177Z,4.09
2024-05-09T17:33:16.051Z,3.71
2024-05-09T17:35:42.842Z,4.05
2024-05-09T17:38:09.712Z,3.35
2024-05-09T17:40:38.255Z,3.35
2024-05-09T17:43:52.697Z,4.12
2024-05-09T17:48:41.903Z,4.12
2024-05-09T17:51:09.899Z,4.50
2024-05-09T17:53:37.124Z,4.72
2024-05-09T17:56:04.255Z,4.21
2024-05-09T17:58:35.870Z,3.88
2024-05-09T18:01:03.293Z,4.17
2024-05-09T18:03:35.224Z,3.99
2024-05-09T18:06:02.777Z,4.23
2024-05-09T18:08:29.551Z,3.85
2024-05-09T18:13:20.107Z,3.58
2024-05-09T18:13:54.246Z,3.66
2024-05-09T18:16:21.173Z,4.00
2024-05-09T18:19:11.198Z,3.45
2024-05-09T18:21:57.931Z,3.84
2024-05-09T18:24:22.653Z,3.91
2024-05-09T18:26:49.411Z,3.65
2024-05-09T18:29:38.453Z,3.35
2024-05-09T18:32:28.631Z,3.45
2024-05-09T18:34:53.608Z,3.38
2024-05-09T18:37:21.947Z,3.37
2024-05-09T18:39:51.726Z,3.57
2024-05-09T18:42:18.449Z,3.35
2024-05-09T18:45:07.754Z,3.69
2024-05-09T18:47:36.875Z,4.35
2024-05-09T18:50:20.397Z,4.75
2024-05-09T18:53:13.836Z,3.73
2024-05-09T18:55:38.847Z,3.42
2024-05-09T18:58:07.364Z,3.62
2024-05-09T19:00:37.551Z,3.44
2024-05-09T19:03:29.825Z,3.54
2024-05-09T19:05:54.225Z,3.59
2024-05-09T19:08:21.459Z,3.39
2024-05-09T19:10:52.929Z,3.40
2024-05-09T19:13:21.509Z,3.42
2024-05-09T19:15:48.746Z,3.51
2024-05-09T19:18:16.151Z,3.33
2024-05-09T19:20:43.062Z,3.56
2024-05-09T19:23:14.216Z,3.69
2024-05-09T19:25:41.017Z,3.40
2024-05-09T19:28:09.342Z,3.46
2024-05-09T19:30:41.206Z,3.31
2024-05-09T19:33:12.257Z,3.68
2024-05-09T19:38:03.753Z,3.78
2024-05-09T19:38:27.380Z,3.65
2024-05-09T19:43:17.411Z,3.89
2024-05-09T19:43:43.770Z,3.50
2024-05-09T19:46:10.559Z,3.62
2024-05-09T19:48:37.374Z,3.47
2024-05-09T19:51:04.459Z,4.19
2024-05-09T19:53:32.293Z,3.64
2024-05-09T19:56:00.331Z,3.50
2024-05-09T19:58:28.490Z,3.74
2024-05-09T20:00:55.866Z,3.88
2024-05-09T20:03:22.694Z,3.90
2024-05-09T20:05:50.924Z,4.13
2024-05-09T20:08:18.979Z,4.06
2024-05-09T20:10:45.635Z,3.60
2024-05-09T20:13:12.446Z,3.94
2024-05-09T20:16:01.799Z,3.75
2024-05-09T20:18:26.863Z,3.53
2024-05-09T20:20:54.349Z,3.69
2024-05-09T20:23:23.672Z,4.11
2024-05-09T20:25:51.496Z,3.87
2024-05-09T20:28:19.688Z,3.80
2024-05-09T20:30:47.818Z,3.89
2024-05-09T20:33:16.008Z,3.91
2024-05-09T20:35:42.815Z,4.16
2024-05-09T20:38:09.613Z,3.88
2024-05-09T20:40:38.852Z,3.88
2024-05-09T20:43:07.045Z,3.88
2024-05-09T20:45:34.535Z,4.00
2024-05-09T20:48:01.960Z,4.11
2024-05-09T20:50:37.053Z,4.13
2024-05-09T20:53:07.393Z,3.95
2024-05-09T20:55:35.614Z,4.15
